Kendall, Florida
Current Conditions -  °F | °C
As of 1:53 AM on Tuesday 21 Oct 2014 (Local Time) from KTMB Reporting Station
Broken Clouds Broken Clouds  
Wind Chill: 74°   Ceiling: 9000
Heat Index: 74°   Visibility: 10mi
Dew Point: 71°   Wind: 0mph
Humidity: 91%   Direction: NA
Pressure: 29.94"   Gusts: NA
Location:  25.65°N, 80.33°W
Report Text: KTMB 210553Z AUTO 00000KT 10SM BKN090 23/22 A2994 RMK AO2 SLP138 T02330217 10239 20228 58016
Loading
Personal Weather Stations






























Interactive Weather Map
Tropical Storm Tracking
New forecast layout! Learn more

10-Day Weather Forecast

Advertisements
Track Severe Weather on mobile